Time,TemperatureF,DewpointF,PressureIn,WindDirection,WindDirectionDegrees,WindSpeedMPH,WindSpeedGustMPH,Humidity,HourlyPrecipIn,Conditions,Clouds,dailyrainin,SolarRadiationWatts/m^2,SoftwareType,DateUTC
2013-07-16 09:53:00,62.0,55.0,-100.00,East,93,2.0,5.0,79,0.00,,,0.00,181.000000,,2013-07-16 17:53:00,
2013-07-16 10:01:00,62.0,55.0,-100.00,East,93,2.0,5.0,79,0.00,,,0.00,181.000000,,2013-07-16 18:01:00,
2013-07-16 10:11:00,62.0,55.0,-100.00,East,93,2.0,5.0,79,0.00,,,0.00,181.000000,,2013-07-16 18:11:00,
2013-07-16 10:22:00,62.0,55.0,-100.00,East,93,2.0,5.0,79,0.00,,,0.00,181.000000,,2013-07-16 18:22:00,
2013-07-16 10:52:00,65.0,55.0,-100.00,North,3,2.0,5.0,70,0.00,,,0.00,384.000000,,2013-07-16 18:52:00,
2013-07-16 11:01:00,65.0,55.0,-100.00,North,3,2.0,5.0,70,0.00,,,0.00,384.000000,,2013-07-16 19:01:00,
2013-07-16 11:11:00,65.0,55.0,-100.00,North,3,2.0,5.0,70,0.00,,,0.00,384.000000,,2013-07-16 19:11:00,
2013-07-16 11:22:00,65.0,55.0,-100.00,North,3,2.0,5.0,70,0.00,,,0.00,384.000000,,2013-07-16 19:22:00,
2013-07-16 11:52:00,65.0,53.0,-100.00,ENE,75,3.0,5.0,64,0.00,,,0.00,389.000000,,2013-07-16 19:52:00,
2013-07-16 12:03:00,65.0,53.0,-100.00,ENE,75,3.0,5.0,64,0.00,,,0.00,389.000000,,2013-07-16 20:03:00,
2013-07-16 12:11:00,65.0,53.0,-100.00,ENE,75,3.0,5.0,64,0.00,,,0.00,389.000000,,2013-07-16 20:11:00,
2013-07-16 12:22:00,65.0,53.0,-100.00,ENE,75,3.0,5.0,64,0.00,,,0.00,389.000000,,2013-07-16 20:22:00,
2013-07-16 13:01:00,63.0,54.0,-100.00,NNE,20,2.0,6.0,72,0.00,,,0.00,177.000000,,2013-07-16 21:01:00,
2013-07-16 13:11:00,63.0,54.0,-100.00,NNE,20,2.0,6.0,72,0.00,,,0.00,177.000000,,2013-07-16 21:11:00,
2013-07-16 13:22:00,63.0,54.0,-100.00,NNE,20,2.0,6.0,72,0.00,,,0.00,177.000000,,2013-07-16 21:22:00,
2013-07-16 14:01:00,64.0,55.0,-100.00,SSW,194,2.0,4.0,72,0.00,,,0.00,190.000000,,2013-07-16 22:01:00,
2013-07-16 14:11:00,64.0,55.0,-100.00,SSW,194,2.0,4.0,72,0.00,,,0.00,190.000000,,2013-07-16 22:11:00,
2013-07-16 14:22:00,64.0,55.0,-100.00,SSW,194,2.0,4.0,72,0.00,,,0.00,190.000000,,2013-07-16 22:22:00,
2013-07-16 14:52:00,64.0,53.0,-100.00,NNW,328,3.0,5.0,67,0.00,,,0.00,221.000000,,2013-07-16 22:52:00,
2013-07-16 15:01:00,64.0,53.0,-100.00,NNW,328,3.0,5.0,67,0.00,,,0.00,221.000000,,2013-07-16 23:01:00,
2013-07-16 15:11:00,64.0,53.0,-100.00,NNW,328,3.0,5.0,67,0.00,,,0.00,221.000000,,2013-07-16 23:11:00,
2013-07-16 15:22:00,64.0,53.0,-100.00,NNW,328,3.0,5.0,67,0.00,,,0.00,221.000000,,2013-07-16 23:22:00,
2013-07-16 15:52:00,70.0,58.0,-100.00,NNW,330,4.0,7.0,65,0.00,,,0.00,477.000000,,2013-07-16 23:52:00,
2013-07-16 16:01:00,70.0,58.0,-100.00,NNW,330,4.0,7.0,65,0.00,,,0.00,477.000000,,2013-07-17 00:01:00,
2013-07-16 16:11:00,70.0,58.0,-100.00,NNW,330,4.0,7.0,65,0.00,,,0.00,477.000000,,2013-07-17 00:11:00,
2013-07-16 16:22:00,70.0,58.0,-100.00,NNW,330,4.0,7.0,65,0.00,,,0.00,477.000000,,2013-07-17 00:22:00,
2013-07-16 16:52:00,65.0,53.0,-100.00,NNE,27,3.0,8.0,66,0.00,,,0.00,273.000000,,2013-07-17 00:52:00,
2013-07-16 17:01:00,65.0,53.0,-100.00,NNE,27,3.0,8.0,66,0.00,,,0.00,273.000000,,2013-07-17 01:01:00,
2013-07-16 17:11:00,65.0,53.0,-100.00,NNE,27,3.0,8.0,66,0.00,,,0.00,273.000000,,2013-07-17 01:11:00,
2013-07-16 17:22:00,65.0,53.0,-100.00,NNE,27,3.0,8.0,66,0.00,,,0.00,273.000000,,2013-07-17 01:22:00,
2013-07-16 17:53:00,66.0,55.0,-100.00,WNW,303,2.0,6.0,68,0.00,,,0.00,187.000000,,2013-07-17 01:53:00,
2013-07-16 18:01:00,66.0,55.0,-100.00,WNW,303,2.0,6.0,68,0.00,,,0.00,187.000000,,2013-07-17 02:01:00,
2013-07-16 18:11:00,66.0,55.0,-100.00,WNW,303,2.0,6.0,68,0.00,,,0.00,187.000000,,2013-07-17 02:11:00,
2013-07-16 18:22:00,66.0,55.0,-100.00,WNW,303,2.0,6.0,68,0.00,,,0.00,187.000000,,2013-07-17 02:22:00,
2013-07-16 18:53:00,66.0,54.0,-100.00,North,359,2.0,8.0,65,0.00,,,0.00,198.000000,,2013-07-17 02:53:00,
2013-07-16 19:01:00,66.0,54.0,-100.00,North,359,2.0,8.0,65,0.00,,,0.00,198.000000,,2013-07-17 03:01:00,
2013-07-16 19:11:00,66.0,54.0,-100.00,North,359,2.0,8.0,65,0.00,,,0.00,198.000000,,2013-07-17 03:11:00,
2013-07-16 19:22:00,66.0,54.0,-100.00,North,359,2.0,8.0,65,0.00,,,0.00,198.000000,,2013-07-17 03:22:00,
2013-07-16 19:53:00,65.0,54.0,-100.00,North,350,3.0,9.0,68,0.00,,,0.00,132.000000,,2013-07-17 03:53:00,
2013-07-16 20:01:00,65.0,54.0,-100.00,North,350,3.0,9.0,68,0.00,,,0.00,132.000000,,2013-07-17 04:01:00,
2013-07-16 20:11:00,65.0,54.0,-100.00,North,350,3.0,9.0,68,0.00,,,0.00,132.000000,,2013-07-17 04:11:00,
2013-07-16 20:22:00,65.0,54.0,-100.00,North,350,3.0,9.0,68,0.00,,,0.00,132.000000,,2013-07-17 04:22:00,
2013-07-16 20:53:00,65.0,55.0,-100.00,West,281,2.0,6.0,69,0.00,,,-99.99,106.000000,,2013-07-17 04:53:00,
2013-07-16 21:02:00,65.0,55.0,-100.00,West,281,2.0,6.0,69,0.00,,,-99.99,106.000000,,2013-07-17 05:02:00,
2013-07-16 21:11:00,65.0,55.0,-100.00,West,281,2.0,6.0,69,0.00,,,-99.99,106.000000,,2013-07-17 05:11:00,
2013-07-16 21:21:00,65.0,55.0,-100.00,West,281,2.0,6.0,69,0.00,,,-99.99,106.000000,,2013-07-17 05:21:00,
2013-07-16 21:52:00,63.0,54.0,-100.00,SE,138,0.0,4.0,73,0.00,,,-99.99,36.000000,,2013-07-17 05:52:00,
2013-07-16 22:01:00,63.0,54.0,-100.00,SE,138,0.0,4.0,73,0.00,,,-99.99,36.000000,,2013-07-17 06:01:00,
2013-07-16 22:11:00,63.0,54.0,-100.00,SE,138,0.0,4.0,73,0.00,,,-99.99,36.000000,,2013-07-17 06:11:00,
2013-07-16 22:22:00,63.0,54.0,-100.00,SE,138,0.0,4.0,73,0.00,,,-99.99,36.000000,,2013-07-17 06:22:00,
2013-07-16 22:52:00,60.0,56.0,-100.00,SSE,166,1.0,2.0,86,0.00,,,-99.99,6.000000,,2013-07-17 06:52:00,
2013-07-16 23:01:00,60.0,56.0,-100.00,SSE,166,1.0,2.0,86,0.00,,,-99.99,6.000000,,2013-07-17 07:01:00,
2013-07-16 23:11:00,60.0,56.0,-100.00,SSE,166,1.0,2.0,86,0.00,,,-99.99,6.000000,,2013-07-17 07:11:00,
2013-07-16 23:22:00,60.0,56.0,-100.00,SSE,166,1.0,2.0,86,0.00,,,-99.99,6.000000,,2013-07-17 07:22:00,
2013-07-16 23:52:00,58.0,56.0,-100.00,SSE,147,0.0,3.0,92,0.00,,,-99.99,1.000000,,2013-07-17 07:52:00,